createdAt,value
2023-10-08T00:00:44.403Z,97467.06
2023-10-08T00:02:46.729Z,97464.34
2023-10-08T00:04:48.434Z,97469.56
2023-10-08T00:06:53.572Z,97474.16
2023-10-08T00:09:00.887Z,97474.31
2023-10-08T00:11:11.168Z,97474.06
2023-10-08T00:13:14.408Z,97476.63
2023-10-08T00:15:16.105Z,97481.91
2023-10-08T00:17:20.818Z,97477.38
2023-10-08T00:19:23.320Z,97479.59
2023-10-08T00:21:28.788Z,97481.06
2023-10-08T00:23:31.513Z,97481.06
2023-10-08T00:25:35.153Z,97483.06
2023-10-08T00:27:40.637Z,97483.44
2023-10-08T00:29:44.541Z,97480.44
2023-10-08T00:31:47.051Z,97484.28
2023-10-08T00:33:49.167Z,97483.44
2023-10-08T00:35:51.275Z,97479.19
2023-10-08T00:37:53.516Z,97473.72
2023-10-08T00:39:58.015Z,97476.53
2023-10-08T00:42:01.120Z,97469.38
2023-10-08T00:44:07.033Z,97463.16
2023-10-08T00:46:25.172Z,97464.34
2023-10-08T00:48:30.413Z,97466.72
2023-10-08T00:50:43.811Z,97465.97
2023-10-08T00:52:54.950Z,97465.53
2023-10-08T00:55:05.866Z,97462.47
2023-10-08T00:57:08.593Z,97464.69
2023-10-08T00:59:14.178Z,97449.75
2023-10-08T01:01:18.062Z,97456.16
2023-10-08T01:03:20.677Z,97453.97
2023-10-08T01:05:51.811Z,97453.00
2023-10-08T01:07:54.689Z,97466.94
2023-10-08T01:10:01.212Z,97463.66
2023-10-08T01:12:23.766Z,97451.56
2023-10-08T01:14:32.896Z,97459.31
2023-10-08T01:16:37.891Z,97449.19
2023-10-08T01:18:44.403Z,97457.03
2023-10-08T01:20:48.587Z,97457.19
2023-10-08T01:22:51.438Z,97459.03
2023-10-08T01:24:53.063Z,97464.16
2023-10-08T01:26:54.792Z,97458.78
2023-10-08T01:28:56.387Z,97467.31
2023-10-08T01:31:01.871Z,97471.56
2023-10-08T01:33:04.275Z,97468.69
2023-10-08T01:35:22.898Z,97460.09
2023-10-08T01:37:24.692Z,97477.31
2023-10-08T01:39:27.479Z,97471.44
2023-10-08T01:41:32.057Z,97463.56
2023-10-08T01:43:33.775Z,97471.00
2023-10-08T01:45:42.291Z,97475.59
2023-10-08T01:47:44.578Z,97464.88
2023-10-08T01:49:47.505Z,97465.38
2023-10-08T01:51:50.452Z,97460.28
2023-10-08T01:53:59.465Z,97463.50
2023-10-08T01:56:02.797Z,97465.91
2023-10-08T01:58:05.165Z,97460.03
2023-10-08T02:00:10.244Z,97467.41
2023-10-08T02:02:16.369Z,97469.03
2023-10-08T02:04:18.638Z,97471.41
2023-10-08T02:06:22.064Z,97466.41
2023-10-08T02:08:23.792Z,97473.03
2023-10-08T02:10:26.309Z,97466.09
2023-10-08T02:12:27.960Z,97468.09
2023-10-08T02:14:32.627Z,97479.84
2023-10-08T02:16:34.924Z,97476.34
2023-10-08T02:18:36.990Z,97466.88
2023-10-08T02:20:40.757Z,97457.19
2023-10-08T02:22:42.482Z,97466.75
2023-10-08T02:24:44.219Z,97465.28
2023-10-08T02:26:45.955Z,97473.84
2023-10-08T02:28:47.777Z,97465.44
2023-10-08T02:30:49.614Z,97463.47
2023-10-08T02:32:53.835Z,97458.13
2023-10-08T02:34:55.550Z,97459.97
2023-10-08T02:36:57.704Z,97452.16
2023-10-08T02:38:59.271Z,97443.13
2023-10-08T02:41:00.892Z,97450.22
2023-10-08T02:43:02.963Z,97454.78
2023-10-08T02:45:05.812Z,97460.63
2023-10-08T02:47:09.235Z,97454.78
2023-10-08T02:49:12.530Z,97456.00
2023-10-08T02:51:17.177Z,97454.22
2023-10-08T02:53:26.838Z,97460.34
2023-10-08T02:55:35.839Z,97456.41
2023-10-08T02:57:38.588Z,97462.16
2023-10-08T02:59:41.601Z,97455.78
2023-10-08T03:01:44.609Z,97454.66
2023-10-08T03:03:48.729Z,97460.34
2023-10-08T03:05:53.536Z,97464.19
2023-10-08T03:07:55.304Z,97472.56
2023-10-08T03:10:18.821Z,97464.88
2023-10-08T03:12:20.400Z,97464.94
2023-10-08T03:14:24.832Z,97462.38
2023-10-08T03:16:34.867Z,97456.16
2023-10-08T03:18:38.230Z,97460.84
2023-10-08T03:20:44.184Z,97472.59
2023-10-08T03:22:47.292Z,97480.78
2023-10-08T03:24:49.895Z,97488.34
2023-10-08T03:26:56.845Z,97493.09
2023-10-08T03:29:00.484Z,97499.22
2023-10-08T03:31:06.413Z,97502.13
2023-10-08T03:33:11.737Z,97499.41
2023-10-08T03:35:13.924Z,97500.41
2023-10-08T03:37:30.469Z,97512.00
2023-10-08T03:39:52.124Z,97520.31
2023-10-08T03:42:07.085Z,97523.06
2023-10-08T03:44:15.405Z,97533.16
2023-10-08T03:46:17.198Z,97525.41
2023-10-08T03:48:19.232Z,97521.31
2023-10-08T03:50:33.943Z,97518.34
2023-10-08T03:52:38.315Z,97516.47
2023-10-08T03:54:49.022Z,97523.94
2023-10-08T03:56:52.148Z,97519.38
2023-10-08T03:58:55.521Z,97525.09
2023-10-08T04:01:09.483Z,97512.47
2023-10-08T04:03:24.533Z,97508.81
2023-10-08T04:05:33.949Z,97509.06
2023-10-08T04:08:01.683Z,97501.59
2023-10-08T04:10:26.386Z,97500.41
2023-10-08T04:12:28.169Z,97504.31
2023-10-08T04:14:30.869Z,97502.78
2023-10-08T04:16:38.552Z,97510.75
2023-10-08T04:18:41.571Z,97504.56
2023-10-08T04:21:02.158Z,97506.03
2023-10-08T04:23:05.977Z,97496.25
2023-10-08T04:25:07.956Z,97488.34
2023-10-08T04:27:10.773Z,97485.09
2023-10-08T04:29:17.537Z,97478.88
2023-10-08T04:31:25.789Z,97471.91
2023-10-08T04:33:29.194Z,97475.03
2023-10-08T04:35:31.913Z,97467.72
2023-10-08T04:37:34.313Z,97464.03
2023-10-08T04:39:36.502Z,97466.69
2023-10-08T04:41:43.619Z,97471.78
2023-10-08T04:43:45.850Z,97458.69
2023-10-08T04:45:47.606Z,97468.13
2023-10-08T04:47:50.936Z,97472.56
2023-10-08T04:49:54.202Z,97463.72
2023-10-08T04:52:00.609Z,97466.44
2023-10-08T04:54:05.814Z,97465.75
2023-10-08T04:56:14.761Z,97466.59
2023-10-08T04:58:22.415Z,97463.44
2023-10-08T05:00:54.540Z,97458.34
2023-10-08T05:03:04.959Z,97471.09
2023-10-08T05:05:12.709Z,97477.41
2023-10-08T05:07:33.181Z,97477.91
2023-10-08T05:09:49.078Z,97477.47
2023-10-08T05:11:53.549Z,97463.72
2023-10-08T05:14:06.942Z,97458.06
2023-10-08T05:16:34.610Z,97463.09
2023-10-08T05:18:56.148Z,97483.00
2023-10-08T05:21:03.308Z,97483.88
2023-10-08T05:23:31.080Z,97475.19
2023-10-08T05:25:54.947Z,97475.19
2023-10-08T05:27:56.551Z,97492.72
2023-10-08T05:30:18.590Z,97488.69
2023-10-08T05:32:39.945Z,97489.31
2023-10-08T05:34:55.881Z,97464.09
2023-10-08T05:37:00.476Z,97468.69
2023-10-08T05:39:02.459Z,97474.28
2023-10-08T05:41:04.515Z,97475.56
2023-10-08T05:43:23.893Z,97460.25
2023-10-08T05:45:34.748Z,97470.03
2023-10-08T05:47:38.405Z,97466.53
2023-10-08T05:49:43.313Z,97470.03
2023-10-08T05:51:45.953Z,97457.53
2023-10-08T05:53:50.254Z,97467.00
2023-10-08T05:56:02.366Z,97466.63
2023-10-08T05:58:14.783Z,97470.88
2023-10-08T06:00:16.612Z,97480.59
2023-10-08T06:02:41.469Z,97477.16
2023-10-08T06:05:05.912Z,97480.94
2023-10-08T06:07:18.114Z,97477.38
2023-10-08T06:09:22.587Z,97475.75
2023-10-08T06:11:45.882Z,97470.03
2023-10-08T06:13:56.421Z,97454.53
2023-10-08T06:15:58.783Z,97491.50
2023-10-08T06:18:06.114Z,97492.88
2023-10-08T06:20:11.197Z,97496.69
2023-10-08T06:22:12.994Z,97531.16
2023-10-08T06:24:18.531Z,97524.09
2023-10-08T06:26:22.177Z,97558.34
2023-10-08T06:28:26.386Z,97546.66
2023-10-08T06:30:35.923Z,97563.38
2023-10-08T06:32:38.623Z,97555.66
2023-10-08T06:34:41.490Z,97553.31
2023-10-08T06:36:43.216Z,97549.75
2023-10-08T06:38:49.971Z,97546.66
2023-10-08T06:40:53.867Z,97541.38
2023-10-08T06:42:58.040Z,97553.31
2023-10-08T06:44:59.939Z,97557.56
2023-10-08T06:47:01.679Z,97557.91
2023-10-08T06:49:09.698Z,97566.41
2023-10-08T06:51:14.138Z,97573.75
2023-10-08T06:53:19.089Z,97566.63
2023-10-08T06:55:25.526Z,97568.47
2023-10-08T06:57:27.737Z,97587.06
2023-10-08T06:59:32.565Z,97583.16
2023-10-08T07:01:40.180Z,97582.03
2023-10-08T07:03:42.107Z,97583.56
2023-10-08T07:05:55.249Z,97586.22
2023-10-08T07:07:57.070Z,97585.72
2023-10-08T07:10:00.635Z,97581.06
2023-10-08T07:12:06.949Z,97584.03
2023-10-08T07:14:12.035Z,97594.25
2023-10-08T07:16:18.443Z,97591.19
2023-10-08T07:18:26.715Z,97588.88
2023-10-08T07:20:29.543Z,97595.09
2023-10-08T07:22:31.539Z,97605.47
2023-10-08T07:24:36.046Z,97596.38
2023-10-08T07:26:38.375Z,97597.84
2023-10-08T07:28:42.869Z,97595.75
2023-10-08T07:30:47.118Z,97605.16
2023-10-08T07:32:48.825Z,97595.63
2023-10-08T07:34:58.424Z,97591.28
2023-10-08T07:37:01.090Z,97591.97
2023-10-08T07:39:08.976Z,97594.69
2023-10-08T07:41:15.552Z,97593.00
2023-10-08T07:43:20.836Z,97587.81
2023-10-08T07:45:22.725Z,97585.06
2023-10-08T07:47:24.696Z,97593.75
2023-10-08T07:49:26.556Z,97598.78
2023-10-08T07:51:28.759Z,97601.94
2023-10-08T07:53:39.449Z,97585.50
2023-10-08T07:55:41.021Z,97567.06
2023-10-08T07:57:43.120Z,97561.06
2023-10-08T07:59:47.513Z,97567.66
2023-10-08T08:01:49.272Z,97564.69
2023-10-08T08:03:51.599Z,97566.03
2023-10-08T08:05:54.108Z,97565.66
2023-10-08T08:07:57.833Z,97582.03
2023-10-08T08:10:00.175Z,97575.41
2023-10-08T08:12:08.759Z,97579.00
2023-10-08T08:14:10.979Z,97577.44
2023-10-08T08:16:21.883Z,97579.50
2023-10-08T08:18:24.015Z,97578.16
2023-10-08T08:20:36.475Z,97582.41
2023-10-08T08:22:41.860Z,97591.00
2023-10-08T08:24:46.288Z,97598.06
2023-10-08T08:27:07.426Z,97598.06
2023-10-08T08:29:10.341Z,97608.19
2023-10-08T08:31:14.877Z,97607.28
2023-10-08T08:33:23.532Z,97603.41
2023-10-08T08:35:25.934Z,97617.66
2023-10-08T08:37:30.677Z,97614.81
2023-10-08T08:39:36.409Z,97626.03
2023-10-08T08:41:39.653Z,97630.97
2023-10-08T08:43:45.415Z,97631.88
2023-10-08T08:45:50.726Z,97628.41
2023-10-08T08:47:53.588Z,97629.53
2023-10-08T08:50:01.270Z,97630.72
2023-10-08T08:52:03.457Z,97643.09
2023-10-08T08:54:13.637Z,97650.97
2023-10-08T08:56:25.118Z,97651.03
2023-10-08T08:58:26.686Z,97657.59
2023-10-08T09:00:31.007Z,97656.19
2023-10-08T09:02:33.270Z,97668.66
2023-10-08T09:04:35.315Z,97669.88
2023-10-08T09:06:41.646Z,97667.69
2023-10-08T09:08:46.720Z,97678.72
2023-10-08T09:10:54.117Z,97676.44
2023-10-08T09:13:00.424Z,97686.38
2023-10-08T09:15:04.137Z,97678.72
2023-10-08T09:17:06.749Z,97691.19
2023-10-08T09:19:13.193Z,97698.97
2023-10-08T09:21:20.110Z,97697.31
2023-10-08T09:23:25.651Z,97697.44
2023-10-08T09:25:30.017Z,97687.16
2023-10-08T09:27:32.349Z,97684.22
2023-10-08T09:29:41.102Z,97683.03
2023-10-08T09:31:49.598Z,97677.56
2023-10-08T09:33:55.395Z,97670.19
2023-10-08T09:36:03.898Z,97682.22
2023-10-08T09:38:10.146Z,97686.41
2023-10-08T09:40:21.974Z,97674.34
2023-10-08T09:42:25.744Z,97667.25
2023-10-08T09:44:27.906Z,97672.47
2023-10-08T09:46:37.744Z,97672.16
2023-10-08T09:48:42.862Z,97664.41
2023-10-08T09:50:47.489Z,97655.63
2023-10-08T09:53:23.476Z,97651.91
2023-10-08T09:55:25.380Z,97646.00
2023-10-08T09:57:28.069Z,97645.34
2023-10-08T09:59:30.400Z,97652.22
2023-10-08T10:01:33.436Z,97653.34
2023-10-08T10:03:37.959Z,97642.50
2023-10-08T10:05:39.870Z,97649.28
2023-10-08T10:07:44.594Z,97654.66
2023-10-08T10:09:50.762Z,97660.78
2023-10-08T10:11:54.446Z,97667.56
2023-10-08T10:14:01.377Z,97650.16
2023-10-08T10:16:03.489Z,97659.69
2023-10-08T10:18:16.943Z,97670.72
2023-10-08T10:20:21.375Z,97680.91
2023-10-08T10:22:35.268Z,97692.41
2023-10-08T10:24:42.712Z,97690.53
2023-10-08T10:26:48.471Z,97697.44
2023-10-08T10:29:10.026Z,97691.72
2023-10-08T10:31:20.519Z,97688.78
2023-10-08T10:33:30.977Z,97683.84
2023-10-08T10:35:34.047Z,97684.28
2023-10-08T10:37:42.703Z,97680.00
2023-10-08T10:39:46.421Z,97696.97
2023-10-08T10:41:49.801Z,97698.38
2023-10-08T10:43:54.196Z,97703.78
2023-10-08T10:45:57.508Z,97701.13
2023-10-08T10:48:12.258Z,97707.50
2023-10-08T10:50:27.862Z,97721.59
2023-10-08T10:52:34.086Z,97727.19
2023-10-08T10:54:39.826Z,97731.34
2023-10-08T10:56:46.136Z,97743.06
2023-10-08T10:58:54.554Z,97734.63
2023-10-08T11:01:00.920Z,97751.00
2023-10-08T11:03:05.182Z,97741.56
2023-10-08T11:05:20.673Z,97750.22
2023-10-08T11:07:24.573Z,97748.28
2023-10-08T11:09:40.102Z,97746.75
2023-10-08T11:11:45.017Z,97744.28
2023-10-08T11:13:55.587Z,97747.19
2023-10-08T11:15:59.300Z,97738.16
2023-10-08T11:18:01.119Z,97739.47
2023-10-08T11:20:08.514Z,97738.75
2023-10-08T11:22:17.059Z,97738.88
2023-10-08T11:24:29.640Z,97724.91
2023-10-08T11:26:39.949Z,97728.81
2023-10-08T11:28:43.378Z,97715.91
2023-10-08T11:30:48.010Z,97719.84
2023-10-08T11:32:49.783Z,97715.53
2023-10-08T11:35:00.992Z,97707.59
2023-10-08T11:37:05.212Z,97694.19
2023-10-08T11:39:12.750Z,97703.91
2023-10-08T11:41:22.729Z,97695.72
2023-10-08T11:43:25.294Z,97695.25
2023-10-08T11:45:28.276Z,97693.50
2023-10-08T11:47:36.891Z,97688.75
2023-10-08T11:49:48.031Z,97684.09
2023-10-08T11:51:49.708Z,97681.16
2023-10-08T11:53:53.139Z,97688.47
2023-10-08T11:55:57.836Z,97686.81
2023-10-08T11:58:01.495Z,97689.25
2023-10-08T12:00:31.277Z,97694.41
2023-10-08T12:02:35.312Z,97708.75
2023-10-08T12:04:37.349Z,97697.78
2023-10-08T12:06:43.316Z,97708.47
2023-10-08T12:08:50.665Z,97707.94
2023-10-08T12:10:55.512Z,97703.03
2023-10-08T12:13:00.912Z,97709.09
2023-10-08T12:15:04.587Z,97705.41
2023-10-08T12:17:12.918Z,97710.06
2023-10-08T12:19:17.812Z,97703.00
2023-10-08T12:21:20.558Z,97700.56
2023-10-08T12:23:30.053Z,97701.09
2023-10-08T12:25:33.290Z,97706.81
2023-10-08T12:27:35.552Z,97717.56
2023-10-08T12:29:39.361Z,97716.34
2023-10-08T12:31:42.041Z,97700.31
2023-10-08T12:33:44.748Z,97704.69
2023-10-08T12:35:48.602Z,97709.56
2023-10-08T12:37:50.516Z,97700.56
2023-10-08T12:40:12.473Z,97710.13
2023-10-08T12:42:14.151Z,97709.94
2023-10-08T12:44:16.843Z,97705.66
2023-10-08T12:46:19.616Z,97702.78
2023-10-08T12:48:29.721Z,97701.09
2023-10-08T12:50:43.227Z,97700.69
2023-10-08T12:52:54.031Z,97701.84
2023-10-08T12:54:57.251Z,97697.41
2023-10-08T12:57:00.095Z,97701.19
2023-10-08T12:59:07.269Z,97695.94
2023-10-08T13:01:12.793Z,97698.34
2023-10-08T13:03:24.341Z,97702.03
2023-10-08T13:05:29.204Z,97699.47
2023-10-08T13:07:39.651Z,97687.75
2023-10-08T13:09:41.245Z,97697.63
2023-10-08T13:11:44.649Z,97695.47
2023-10-08T13:13:46.412Z,97694.19
2023-10-08T13:15:48.015Z,97696.28
2023-10-08T13:17:50.008Z,97688.16
2023-10-08T13:19:53.870Z,97685.31
2023-10-08T13:21:55.874Z,97686.25
2023-10-08T13:24:04.303Z,97688.69
2023-10-08T13:26:08.291Z,97693.28
2023-10-08T13:28:12.531Z,97690.75
2023-10-08T13:30:14.479Z,97694.00
2023-10-08T13:32:19.009Z,97686.41
2023-10-08T13:34:22.519Z,97698.69
2023-10-08T13:36:25.166Z,97689.00
2023-10-08T13:38:30.973Z,97690.31
2023-10-08T13:40:34.329Z,97686.16
2023-10-08T13:42:36.019Z,97693.25
2023-10-08T13:44:38.887Z,97687.13
2023-10-08T13:46:44.215Z,97673.88
2023-10-08T13:48:49.785Z,97667.66
2023-10-08T13:50:52.908Z,97675.00
2023-10-08T13:52:54.568Z,97671.69
2023-10-08T13:54:56.506Z,97672.84
2023-10-08T13:57:00.149Z,97675.50
2023-10-08T13:59:07.602Z,97681.97
2023-10-08T14:01:19.889Z,97684.78
2023-10-08T14:03:25.820Z,97690.19
2023-10-08T14:05:27.584Z,97691.41
2023-10-08T14:07:29.436Z,97681.69
2023-10-08T14:09:38.526Z,97680.47
2023-10-08T14:11:40.769Z,97666.91
2023-10-08T14:13:43.198Z,97661.09
2023-10-08T14:15:49.043Z,97667.50
2023-10-08T14:17:54.807Z,97661.41
2023-10-08T14:20:08.041Z,97661.88
2023-10-08T14:22:09.859Z,97662.28
2023-10-08T14:24:16.532Z,97662.28
2023-10-08T14:26:18.298Z,97669.31
2023-10-08T14:28:23.043Z,97676.19
2023-10-08T14:30:26.167Z,97669.78
2023-10-08T14:32:33.340Z,97678.19
2023-10-08T14:34:44.379Z,97675.59
2023-10-08T14:37:09.013Z,97677.16
2023-10-08T14:39:30.021Z,97677.16
2023-10-08T14:41:50.609Z,97678.69
2023-10-08T14:43:52.866Z,97671.19
2023-10-08T14:45:54.571Z,97671.97
2023-10-08T14:47:57.361Z,97674.69
2023-10-08T14:50:01.510Z,97668.91
2023-10-08T14:52:05.194Z,97665.06
2023-10-08T14:54:08.148Z,97659.88
2023-10-08T14:56:10.159Z,97648.88
2023-10-08T14:58:12.270Z,97644.16
2023-10-08T15:00:14.877Z,97643.56
2023-10-08T15:02:17.002Z,97646.59
2023-10-08T15:04:19.525Z,97647.66
2023-10-08T15:06:21.814Z,97633.75
2023-10-08T15:08:24.929Z,97625.97
2023-10-08T15:10:26.896Z,97627.19
2023-10-08T15:12:29.390Z,97619.25
2023-10-08T15:14:32.345Z,97618.94
2023-10-08T15:16:34.573Z,97616.78
2023-10-08T15:18:43.109Z,97610.25
2023-10-08T15:20:45.054Z,97603.22
2023-10-08T15:22:48.345Z,97607.94
2023-10-08T15:24:49.908Z,97610.53
2023-10-08T15:26:53.680Z,97610.66
2023-10-08T15:28:55.970Z,97623.91
2023-10-08T15:30:57.585Z,97623.72
2023-10-08T15:32:59.500Z,97610.56
2023-10-08T15:35:01.188Z,97602.78
2023-10-08T15:37:02.832Z,97608.19
2023-10-08T15:39:06.350Z,97628.72
2023-10-08T15:41:07.930Z,97628.63
2023-10-08T15:43:09.491Z,97625.25
2023-10-08T15:45:14.852Z,97623.66
2023-10-08T15:47:18.679Z,97612.69
2023-10-08T15:49:20.558Z,97625.66
2023-10-08T15:51:22.218Z,97630.72
2023-10-08T15:53:23.831Z,97626.44
2023-10-08T15:55:27.293Z,97637.25
2023-10-08T15:57:28.954Z,97661.59
2023-10-08T15:59:30.746Z,97647.06
2023-10-08T16:01:32.871Z,97639.06
2023-10-08T16:03:34.903Z,97626.50
2023-10-08T16:05:37.659Z,97626.94
2023-10-08T16:07:39.962Z,97620.00
2023-10-08T16:09:44.808Z,97626.69
2023-10-08T16:11:46.504Z,97629.84
2023-10-08T16:13:48.214Z,97625.69
2023-10-08T16:15:50.410Z,97619.75
2023-10-08T16:17:52.537Z,97609.69
2023-10-08T16:19:54.396Z,97622.94
2023-10-08T16:21:56.502Z,97628.78
2023-10-08T16:23:59.223Z,97637.09
2023-10-08T16:26:01.244Z,97635.25
2023-10-08T16:28:04.794Z,97633.63
2023-10-08T16:30:12.762Z,97641.84
2023-10-08T16:32:14.683Z,97645.66
2023-10-08T16:34:19.739Z,97648.31
2023-10-08T16:36:21.380Z,97670.50
2023-10-08T16:38:23.792Z,97672.16
2023-10-08T16:40:25.448Z,97666.34
2023-10-08T16:42:27.597Z,97663.16
2023-10-08T16:44:29.735Z,97656.59
2023-10-08T16:46:31.251Z,97649.25
2023-10-08T16:48:33.990Z,97641.56
2023-10-08T16:50:35.853Z,97641.56
2023-10-08T16:52:37.457Z,97652.06
2023-10-08T16:54:39.089Z,97653.91
2023-10-08T16:56:40.992Z,97648.31
2023-10-08T16:58:42.734Z,97648.44
2023-10-08T17:00:44.907Z,97647.78
2023-10-08T17:02:46.512Z,97653.41
2023-10-08T17:04:48.276Z,97646.97
2023-10-08T17:06:50.922Z,97662.25
2023-10-08T17:08:53.706Z,97658.44
2023-10-08T17:10:55.744Z,97654.97
2023-10-08T17:13:00.435Z,97654.63
2023-10-08T17:15:02.549Z,97640.69
2023-10-08T17:17:05.270Z,97642.75
2023-10-08T17:19:08.608Z,97642.25
2023-10-08T17:21:10.393Z,97611.53
2023-10-08T17:23:12.240Z,97598.91
2023-10-08T17:25:14.176Z,97593.81
2023-10-08T17:27:15.788Z,97597.16
2023-10-08T17:29:18.836Z,97594.59
2023-10-08T17:31:20.726Z,97604.72
2023-10-08T17:33:22.695Z,97621.09
2023-10-08T17:35:24.422Z,97624.19
2023-10-08T17:37:27.101Z,97621.88
2023-10-08T17:39:28.952Z,97615.16
2023-10-08T17:41:30.831Z,97622.31
2023-10-08T17:43:32.947Z,97624.81
2023-10-08T17:45:36.913Z,97626.16
2023-10-08T17:47:40.432Z,97622.91
2023-10-08T17:49:43.183Z,97626.66
2023-10-08T17:51:45.088Z,97626.34
2023-10-08T17:53:46.860Z,97621.72
2023-10-08T17:55:48.672Z,97625.72
2023-10-08T17:57:50.306Z,97626.47
2023-10-08T17:59:52.061Z,97629.72
2023-10-08T18:01:54.389Z,97621.66
2023-10-08T18:03:56.143Z,97611.50
2023-10-08T18:05:58.380Z,97608.09
2023-10-08T18:08:00.570Z,97603.78
2023-10-08T18:10:02.685Z,97603.97
2023-10-08T18:12:04.727Z,97599.06
2023-10-08T18:14:07.103Z,97593.31
2023-10-08T18:16:13.839Z,97594.78
2023-10-08T18:18:16.061Z,97593.88
2023-10-08T18:20:21.130Z,97602.69
2023-10-08T18:22:23.575Z,97614.28
2023-10-08T18:24:29.113Z,97608.31
2023-10-08T18:26:30.894Z,97589.75
2023-10-08T18:28:32.737Z,97591.53
2023-10-08T18:30:34.485Z,97587.94
2023-10-08T18:32:37.414Z,97583.44
2023-10-08T18:34:39.785Z,97582.72
2023-10-08T18:36:42.460Z,97581.72
2023-10-08T18:38:44.100Z,97579.28
2023-10-08T18:40:46.534Z,97576.97
2023-10-08T18:42:48.234Z,97582.69
2023-10-08T18:44:51.015Z,97579.75
2023-10-08T18:46:53.770Z,97588.00
2023-10-08T18:48:55.733Z,97591.34
2023-10-08T18:51:12.085Z,97591.97
2023-10-08T18:53:14.107Z,97586.03
2023-10-08T18:55:16.284Z,97573.50
2023-10-08T18:57:18.708Z,97575.81
2023-10-08T18:59:21.668Z,97573.94
2023-10-08T19:01:27.489Z,97572.38
2023-10-08T19:03:29.569Z,97569.91
2023-10-08T19:05:31.230Z,97573.25
2023-10-08T19:07:36.123Z,97572.91
2023-10-08T19:09:38.118Z,97565.94
2023-10-08T19:11:39.881Z,97563.38
2023-10-08T19:13:41.580Z,97563.00
2023-10-08T19:15:43.391Z,97564.53
2023-10-08T19:17:47.947Z,97557.63
2023-10-08T19:19:49.914Z,97551.34
2023-10-08T19:21:51.759Z,97556.31
2023-10-08T19:23:54.517Z,97543.53
2023-10-08T19:25:56.640Z,97554.97
2023-10-08T19:28:00.155Z,97557.09
2023-10-08T19:30:07.456Z,97552.06
2023-10-08T19:32:12.145Z,97564.47
2023-10-08T19:34:14.473Z,97568.47
2023-10-08T19:36:16.121Z,97561.84
2023-10-08T19:38:17.881Z,97566.84
2023-10-08T19:40:22.828Z,97558.72
2023-10-08T19:42:24.652Z,97556.47
2023-10-08T19:44:27.043Z,97554.16
2023-10-08T19:46:28.991Z,97555.59
2023-10-08T19:48:32.624Z,97550.56
2023-10-08T19:50:41.838Z,97551.69
2023-10-08T19:52:44.704Z,97555.59
2023-10-08T19:54:47.472Z,97550.44
2023-10-08T19:56:49.748Z,97546.53
2023-10-08T19:58:52.272Z,97555.06
2023-10-08T20:00:53.910Z,97552.09
2023-10-08T20:02:56.479Z,97548.22
2023-10-08T20:04:58.216Z,97551.75
2023-10-08T20:06:59.794Z,97551.16
2023-10-08T20:09:02.479Z,97556.59
2023-10-08T20:11:04.636Z,97548.00
2023-10-08T20:13:06.726Z,97554.16
2023-10-08T20:15:12.817Z,97547.34
2023-10-08T20:17:14.406Z,97545.94
2023-10-08T20:19:20.296Z,97545.44
2023-10-08T20:21:22.965Z,97547.25
2023-10-08T20:23:30.768Z,97540.41
2023-10-08T20:25:37.604Z,97536.81
2023-10-08T20:27:43.315Z,97541.63
2023-10-08T20:29:46.179Z,97538.09
2023-10-08T20:31:49.781Z,97539.94
2023-10-08T20:33:54.239Z,97544.63
2023-10-08T20:35:57.268Z,97536.19
2023-10-08T20:37:59.075Z,97537.28
2023-10-08T20:40:00.654Z,97542.72
2023-10-08T20:42:02.526Z,97551.97
2023-10-08T20:44:04.545Z,97546.91
2023-10-08T20:46:07.955Z,97540.78
2023-10-08T20:48:14.676Z,97544.34
2023-10-08T20:50:30.523Z,97542.63
2023-10-08T20:52:34.596Z,97537.56
2023-10-08T20:54:36.627Z,97537.69
2023-10-08T20:56:38.630Z,97535.34
2023-10-08T20:58:40.277Z,97534.31
2023-10-08T21:00:46.278Z,97541.59
2023-10-08T21:02:55.749Z,97531.13
2023-10-08T21:04:58.044Z,97528.78
2023-10-08T21:07:00.905Z,97525.66
2023-10-08T21:09:03.063Z,97523.88
2023-10-08T21:11:05.165Z,97530.31
2023-10-08T21:13:07.441Z,97526.78
2023-10-08T21:15:20.934Z,97534.16
2023-10-08T21:17:24.519Z,97526.84
2023-10-08T21:19:27.102Z,97523.22
2023-10-08T21:21:29.504Z,97518.59
2023-10-08T21:23:31.178Z,97509.31
2023-10-08T21:25:33.561Z,97511.22
2023-10-08T21:27:40.358Z,97514.25
2023-10-08T21:29:41.975Z,97515.41
2023-10-08T21:31:43.801Z,97508.41
2023-10-08T21:33:45.948Z,97508.69
2023-10-08T21:35:47.922Z,97496.28
2023-10-08T21:37:51.423Z,97504.09
2023-10-08T21:39:53.193Z,97499.56
2023-10-08T21:41:54.899Z,97492.66
2023-10-08T21:43:56.488Z,97496.16
2023-10-08T21:45:58.124Z,97491.13
2023-10-08T21:48:01.114Z,97486.09
2023-10-08T21:50:04.415Z,97484.56
2023-10-08T21:52:06.165Z,97485.34
2023-10-08T21:54:08.112Z,97478.88
2023-10-08T21:56:09.942Z,97476.13
2023-10-08T21:58:11.552Z,97472.63
2023-10-08T22:00:26.434Z,97466.84
2023-10-08T22:02:44.714Z,97464.63
2023-10-08T22:04:50.527Z,97458.78
2023-10-08T22:06:54.917Z,97449.09
2023-10-08T22:08:57.713Z,97451.19
2023-10-08T22:10:59.380Z,97456.53
2023-10-08T22:13:05.838Z,97447.66
2023-10-08T22:15:17.455Z,97442.72
2023-10-08T22:17:27.568Z,97437.69
2023-10-08T22:19:33.738Z,97441.91
2023-10-08T22:21:36.305Z,97433.84
2023-10-08T22:23:40.012Z,97435.06
2023-10-08T22:25:48.346Z,97435.50
2023-10-08T22:27:50.852Z,97434.25
2023-10-08T22:29:52.532Z,97435.06
2023-10-08T22:31:57.057Z,97436.00
2023-10-08T22:34:07.573Z,97430.97
2023-10-08T22:36:29.647Z,97427.84
2023-10-08T22:38:33.209Z,97434.63
2023-10-08T22:40:49.738Z,97429.22
2023-10-08T22:42:52.128Z,97430.81
2023-10-08T22:44:57.015Z,97422.44
2023-10-08T22:47:08.354Z,97423.91
2023-10-08T22:49:20.622Z,97419.25
2023-10-08T22:51:26.774Z,97422.78
2023-10-08T22:53:29.325Z,97422.44
2023-10-08T22:55:37.934Z,97415.44
2023-10-08T22:57:39.479Z,97415.81
2023-10-08T22:59:41.632Z,97414.31
2023-10-08T23:01:54.377Z,97411.25
2023-10-08T23:03:57.319Z,97408.13
2023-10-08T23:05:59.400Z,97404.34
2023-10-08T23:08:01.285Z,97407.38
2023-10-08T23:10:02.869Z,97404.97
2023-10-08T23:12:06.162Z,97400.72
2023-10-08T23:14:09.857Z,97404.16
2023-10-08T23:16:16.387Z,97400.16
2023-10-08T23:18:24.561Z,97398.69
2023-10-08T23:20:26.745Z,97386.94
2023-10-08T23:22:28.772Z,97391.13
2023-10-08T23:24:30.694Z,97389.56
2023-10-08T23:26:32.634Z,97396.28
2023-10-08T23:28:35.398Z,97393.94
2023-10-08T23:30:37.956Z,97383.19
2023-10-08T23:32:43.571Z,97378.81
2023-10-08T23:34:45.365Z,97369.22
2023-10-08T23:36:52.459Z,97366.09
2023-10-08T23:39:08.168Z,97364.84
2023-10-08T23:41:16.916Z,97365.97
2023-10-08T23:43:18.655Z,97360.44
2023-10-08T23:45:27.823Z,97361.28
2023-10-08T23:47:29.783Z,97362.91
2023-10-08T23:49:31.816Z,97371.34
2023-10-08T23:51:39.447Z,97365.13
2023-10-08T23:53:48.242Z,97364.69
2023-10-08T23:56:02.260Z,97364.34
2023-10-08T23:58:18.145Z,97361.22
